Petersburgh, New York
Current Conditions -  °F | °C
As of 3:52 AM on Wednesday 26 Nov 2014 (Local Time) from KAQW Reporting Station
Broken Clouds Broken Clouds  
Wind Chill:   Ceiling: 4000
Heat Index:   Visibility: 10mi
Dew Point: -3°   Wind: 5mph
Humidity: 65%   Direction: 300°WNW
Pressure: 30.19"   Gusts: NA
Location:  42.7192°N, 73.3641°W
Report Text: KAQW 260852Z AUTO 30004KT 10SM BKN040 03/M03 A3019 RMK AO2 SLP227 T00331028 51011
Loading
Personal Weather Stations






























Interactive Weather Map New forecast layout! Learn more

10-Day Weather Forecast

Advertisements
Track Severe Weather on mobile